sensor_id;sensor_type;location;lat;lon;timestamp;P1;durP1;ratioP1;P2;durP2;ratioP2
65375;SDS011;51976;47.332;9.404;2022-08-21T00:01:52;0.80;;;0.60;;
65375;SDS011;51976;47.332;9.404;2022-08-21T00:04:18;0.85;;;0.57;;
65375;SDS011;51976;47.332;9.404;2022-08-21T00:06:43;0.77;;;0.55;;
65375;SDS011;51976;47.332;9.404;2022-08-21T00:09:09;0.88;;;0.60;;
65375;SDS011;51976;47.332;9.404;2022-08-21T00:11:35;1.02;;;0.60;;
65375;SDS011;51976;47.332;9.404;2022-08-21T00:14:03;0.75;;;0.55;;
65375;SDS011;51976;47.332;9.404;2022-08-21T00:16:29;1.10;;;0.60;;
65375;SDS011;51976;47.332;9.404;2022-08-21T00:18:55;0.77;;;0.52;;
65375;SDS011;51976;47.332;9.404;2022-08-21T00:21:20;0.90;;;0.70;;
65375;SDS011;51976;47.332;9.404;2022-08-21T00:23:47;1.10;;;0.70;;
65375;SDS011;51976;47.332;9.404;2022-08-21T00:26:12;1.40;;;0.70;;
65375;SDS011;51976;47.332;9.404;2022-08-21T00:28:37;0.63;;;0.40;;
65375;SDS011;51976;47.332;9.404;2022-08-21T00:31:03;1.20;;;0.85;;
65375;SDS011;51976;47.332;9.404;2022-08-21T00:33:29;0.80;;;0.60;;
65375;SDS011;51976;47.332;9.404;2022-08-21T00:35:55;0.82;;;0.60;;
65375;SDS011;51976;47.332;9.404;2022-08-21T00:38:21;0.77;;;0.50;;
65375;SDS011;51976;47.332;9.404;2022-08-21T00:40:49;1.55;;;0.70;;
65375;SDS011;51976;47.332;9.404;2022-08-21T00:43:18;1.17;;;0.80;;
65375;SDS011;51976;47.332;9.404;2022-08-21T00:45:48;0.88;;;0.60;;
65375;SDS011;51976;47.332;9.404;2022-08-21T00:48:14;0.90;;;0.55;;
65375;SDS011;51976;47.332;9.404;2022-08-21T00:50:44;0.88;;;0.60;;
65375;SDS011;51976;47.332;9.404;2022-08-21T00:53:17;0.85;;;0.68;;
65375;SDS011;51976;47.332;9.404;2022-08-21T00:55:43;1.08;;;0.77;;
65375;SDS011;51976;47.332;9.404;2022-08-21T00:58:10;0.80;;;0.50;;
65375;SDS011;51976;47.332;9.404;2022-08-21T01:00:38;0.85;;;0.60;;
65375;SDS011;51976;47.332;9.404;2022-08-21T01:03:07;1.23;;;0.80;;
65375;SDS011;51976;47.332;9.404;2022-08-21T01:05:36;1.25;;;0.85;;
65375;SDS011;51976;47.332;9.404;2022-08-21T01:08:02;0.77;;;0.63;;
65375;SDS011;51976;47.332;9.404;2022-08-21T01:10:29;1.00;;;0.60;;
65375;SDS011;51976;47.332;9.404;2022-08-21T01:12:55;1.05;;;0.60;;
65375;SDS011;51976;47.332;9.404;2022-08-21T01:15:23;1.00;;;0.77;;
65375;SDS011;51976;47.332;9.404;2022-08-21T01:17:53;0.82;;;0.50;;
65375;SDS011;51976;47.332;9.404;2022-08-21T01:20:18;1.00;;;0.68;;
65375;SDS011;51976;47.332;9.404;2022-08-21T01:22:44;0.98;;;0.70;;
65375;SDS011;51976;47.332;9.404;2022-08-21T01:25:13;0.88;;;0.68;;
65375;SDS011;51976;47.332;9.404;2022-08-21T01:27:40;0.68;;;0.47;;
65375;SDS011;51976;47.332;9.404;2022-08-21T01:30:11;0.90;;;0.70;;
65375;SDS011;51976;47.332;9.404;2022-08-21T01:32:40;1.20;;;0.70;;
65375;SDS011;51976;47.332;9.404;2022-08-21T01:35:06;1.38;;;0.68;;
65375;SDS011;51976;47.332;9.404;2022-08-21T01:37:32;0.90;;;0.50;;
65375;SDS011;51976;47.332;9.404;2022-08-21T01:39:58;0.80;;;0.50;;
65375;SDS011;51976;47.332;9.404;2022-08-21T01:42:24;0.80;;;0.50;;
65375;SDS011;51976;47.332;9.404;2022-08-21T01:44:49;1.05;;;0.65;;
65375;SDS011;51976;47.332;9.404;2022-08-21T01:47:15;0.95;;;0.65;;
65375;SDS011;51976;47.332;9.404;2022-08-21T01:49:41;0.80;;;0.60;;
65375;SDS011;51976;47.332;9.404;2022-08-21T01:52:07;0.85;;;0.50;;
65375;SDS011;51976;47.332;9.404;2022-08-21T01:54:33;1.27;;;0.50;;
65375;SDS011;51976;47.332;9.404;2022-08-21T01:56:59;1.05;;;0.50;;
65375;SDS011;51976;47.332;9.404;2022-08-21T01:59:25;0.50;;;0.40;;
65375;SDS011;51976;47.332;9.404;2022-08-21T02:01:51;0.80;;;0.60;;
65375;SDS011;51976;47.332;9.404;2022-08-21T02:04:19;0.90;;;0.65;;
65375;SDS011;51976;47.332;9.404;2022-08-21T02:06:45;0.90;;;0.60;;
65375;SDS011;51976;47.332;9.404;2022-08-21T02:09:11;0.75;;;0.40;;
65375;SDS011;51976;47.332;9.404;2022-08-21T02:11:38;0.85;;;0.40;;
65375;SDS011;51976;47.332;9.404;2022-08-21T02:14:05;0.60;;;0.30;;
65375;SDS011;51976;47.332;9.404;2022-08-21T02:16:36;0.88;;;0.52;;
65375;SDS011;51976;47.332;9.404;2022-08-21T02:19:02;0.65;;;0.55;;
65375;SDS011;51976;47.332;9.404;2022-08-21T02:21:28;0.60;;;0.43;;
65375;SDS011;51976;47.332;9.404;2022-08-21T02:23:54;0.82;;;0.52;;
65375;SDS011;51976;47.332;9.404;2022-08-21T02:26:19;0.85;;;0.52;;
65375;SDS011;51976;47.332;9.404;2022-08-21T02:28:44;1.20;;;0.60;;
65375;SDS011;51976;47.332;9.404;2022-08-21T02:31:11;0.95;;;0.60;;
65375;SDS011;51976;47.332;9.404;2022-08-21T02:33:36;1.10;;;0.68;;
65375;SDS011;51976;47.332;9.404;2022-08-21T02:36:02;1.00;;;0.60;;
65375;SDS011;51976;47.332;9.404;2022-08-21T02:38:30;0.80;;;0.40;;
65375;SDS011;51976;47.332;9.404;2022-08-21T02:40:58;2.50;;;0.50;;
65375;SDS011;51976;47.332;9.404;2022-08-21T02:43:24;0.77;;;0.43;;
65375;SDS011;51976;47.332;9.404;2022-08-21T02:45:51;0.60;;;0.50;;
65375;SDS011;51976;47.332;9.404;2022-08-21T02:48:18;0.80;;;0.50;;
65375;SDS011;51976;47.332;9.404;2022-08-21T02:50:46;0.93;;;0.60;;
65375;SDS011;51976;47.332;9.404;2022-08-21T02:53:20;1.02;;;0.60;;
65375;SDS011;51976;47.332;9.404;2022-08-21T02:55:47;0.63;;;0.45;;
65375;SDS011;51976;47.332;9.404;2022-08-21T02:58:15;0.70;;;0.40;;
65375;SDS011;51976;47.332;9.404;2022-08-21T03:00:43;1.13;;;0.60;;
65375;SDS011;51976;47.332;9.404;2022-08-21T03:03:09;1.10;;;0.75;;
65375;SDS011;51976;47.332;9.404;2022-08-21T03:05:35;0.52;;;0.40;;
65375;SDS011;51976;47.332;9.404;2022-08-21T03:08:03;0.70;;;0.50;;
65375;SDS011;51976;47.332;9.404;2022-08-21T03:10:34;0.70;;;0.50;;
65375;SDS011;51976;47.332;9.404;2022-08-21T03:13:00;0.60;;;0.50;;
65375;SDS011;51976;47.332;9.404;2022-08-21T03:15:27;1.10;;;0.60;;
65375;SDS011;51976;47.332;9.404;2022-08-21T03:17:53;1.58;;;0.60;;
65375;SDS011;51976;47.332;9.404;2022-08-21T03:20:20;0.80;;;0.50;;
65375;SDS011;51976;47.332;9.404;2022-08-21T03:22:51;0.60;;;0.35;;
65375;SDS011;51976;47.332;9.404;2022-08-21T03:25:17;1.85;;;0.50;;
65375;SDS011;51976;47.332;9.404;2022-08-21T03:27:44;0.88;;;0.47;;
65375;SDS011;51976;47.332;9.404;2022-08-21T03:30:10;0.60;;;0.45;;
65375;SDS011;51976;47.332;9.404;2022-08-21T03:32:36;0.70;;;0.40;;
65375;SDS011;51976;47.332;9.404;2022-08-21T03:35:02;0.60;;;0.40;;
65375;SDS011;51976;47.332;9.404;2022-08-21T03:37:29;0.82;;;0.50;;
65375;SDS011;51976;47.332;9.404;2022-08-21T03:39:54;0.80;;;0.52;;
65375;SDS011;51976;47.332;9.404;2022-08-21T03:42:20;1.00;;;0.63;;
65375;SDS011;51976;47.332;9.404;2022-08-21T03:44:47;0.73;;;0.40;;
65375;SDS011;51976;47.332;9.404;2022-08-21T03:47:13;0.70;;;0.50;;
65375;SDS011;51976;47.332;9.404;2022-08-21T03:49:38;0.95;;;0.40;;
65375;SDS011;51976;47.332;9.404;2022-08-21T03:52:04;0.70;;;0.47;;
65375;SDS011;51976;47.332;9.404;2022-08-21T03:54:29;0.65;;;0.40;;
65375;SDS011;51976;47.332;9.404;2022-08-21T03:56:55;0.57;;;0.30;;
65375;SDS011;51976;47.332;9.404;2022-08-21T03:59:21;1.10;;;0.45;;
65375;SDS011;51976;47.332;9.404;2022-08-21T04:01:51;0.68;;;0.50;;
65375;SDS011;51976;47.332;9.404;2022-08-21T04:04:21;0.90;;;0.60;;
65375;SDS011;51976;47.332;9.404;2022-08-21T04:06:46;1.27;;;0.50;;
65375;SDS011;51976;47.332;9.404;2022-08-21T04:09:12;0.50;;;0.30;;
65375;SDS011;51976;47.332;9.404;2022-08-21T04:11:37;0.73;;;0.52;;
65375;SDS011;51976;47.332;9.404;2022-08-21T04:14:03;0.55;;;0.40;;
65375;SDS011;51976;47.332;9.404;2022-08-21T04:16:28;0.70;;;0.40;;
65375;SDS011;51976;47.332;9.404;2022-08-21T04:18:53;0.70;;;0.43;;
65375;SDS011;51976;47.332;9.404;2022-08-21T04:21:19;0.70;;;0.40;;
65375;SDS011;51976;47.332;9.404;2022-08-21T04:23:44;0.68;;;0.50;;
65375;SDS011;51976;47.332;9.404;2022-08-21T04:26:10;0.60;;;0.40;;
65375;SDS011;51976;47.332;9.404;2022-08-21T04:28:35;0.77;;;0.45;;
65375;SDS011;51976;47.332;9.404;2022-08-21T04:31:01;0.60;;;0.40;;
65375;SDS011;51976;47.332;9.404;2022-08-21T04:33:26;0.65;;;0.40;;
65375;SDS011;51976;47.332;9.404;2022-08-21T04:35:52;0.65;;;0.40;;
65375;SDS011;51976;47.332;9.404;2022-08-21T04:38:17;0.68;;;0.40;;
65375;SDS011;51976;47.332;9.404;2022-08-21T04:40:43;0.75;;;0.40;;
65375;SDS011;51976;47.332;9.404;2022-08-21T04:43:09;0.80;;;0.45;;
65375;SDS011;51976;47.332;9.404;2022-08-21T04:45:36;0.60;;;0.40;;
65375;SDS011;51976;47.332;9.404;2022-08-21T04:48:05;1.00;;;0.60;;
65375;SDS011;51976;47.332;9.404;2022-08-21T04:50:39;0.60;;;0.35;;
65375;SDS011;51976;47.332;9.404;2022-08-21T04:53:11;0.50;;;0.35;;
65375;SDS011;51976;47.332;9.404;2022-08-21T04:55:40;0.90;;;0.52;;
65375;SDS011;51976;47.332;9.404;2022-08-21T04:58:08;1.08;;;0.60;;
65375;SDS011;51976;47.332;9.404;2022-08-21T05:00:36;1.10;;;0.68;;
65375;SDS011;51976;47.332;9.404;2022-08-21T05:03:02;0.82;;;0.40;;
65375;SDS011;51976;47.332;9.404;2022-08-21T05:05:31;0.80;;;0.45;;
65375;SDS011;51976;47.332;9.404;2022-08-21T05:07:58;0.60;;;0.40;;
65375;SDS011;51976;47.332;9.404;2022-08-21T05:10:26;0.98;;;0.50;;
65375;SDS011;51976;47.332;9.404;2022-08-21T05:12:52;0.90;;;0.30;;
65375;SDS011;51976;47.332;9.404;2022-08-21T05:15:18;0.70;;;0.47;;
65375;SDS011;51976;47.332;9.404;2022-08-21T05:17:43;0.68;;;0.40;;
65375;SDS011;51976;47.332;9.404;2022-08-21T05:20:09;0.63;;;0.40;;
65375;SDS011;51976;47.332;9.404;2022-08-21T05:22:36;0.70;;;0.38;;
65375;SDS011;51976;47.332;9.404;2022-08-21T05:25:02;1.27;;;0.50;;
65375;SDS011;51976;47.332;9.404;2022-08-21T05:27:28;0.70;;;0.30;;
65375;SDS011;51976;47.332;9.404;2022-08-21T05:29:54;0.80;;;0.45;;
65375;SDS011;51976;47.332;9.404;2022-08-21T05:32:21;0.68;;;0.40;;
65375;SDS011;51976;47.332;9.404;2022-08-21T05:34:47;0.52;;;0.40;;
65375;SDS011;51976;47.332;9.404;2022-08-21T05:37:12;0.80;;;0.38;;
65375;SDS011;51976;47.332;9.404;2022-08-21T05:39:38;0.80;;;0.40;;
65375;SDS011;51976;47.332;9.404;2022-08-21T05:42:03;0.40;;;0.30;;
65375;SDS011;51976;47.332;9.404;2022-08-21T05:44:29;1.02;;;0.60;;
65375;SDS011;51976;47.332;9.404;2022-08-21T05:46:54;0.73;;;0.40;;
65375;SDS011;51976;47.332;9.404;2022-08-21T05:49:19;0.70;;;0.40;;
65375;SDS011;51976;47.332;9.404;2022-08-21T05:51:45;0.50;;;0.20;;
65375;SDS011;51976;47.332;9.404;2022-08-21T05:54:10;0.35;;;0.20;;
65375;SDS011;51976;47.332;9.404;2022-08-21T05:56:36;0.90;;;0.50;;
65375;SDS011;51976;47.332;9.404;2022-08-21T05:59:02;0.60;;;0.30;;
65375;SDS011;51976;47.332;9.404;2022-08-21T06:01:27;0.95;;;0.45;;
65375;SDS011;51976;47.332;9.404;2022-08-21T06:03:53;0.57;;;0.32;;
65375;SDS011;51976;47.332;9.404;2022-08-21T06:06:19;0.65;;;0.43;;
65375;SDS011;51976;47.332;9.404;2022-08-21T06:08:44;0.65;;;0.30;;
65375;SDS011;51976;47.332;9.404;2022-08-21T06:11:10;0.95;;;0.50;;
65375;SDS011;51976;47.332;9.404;2022-08-21T06:13:36;0.70;;;0.47;;
65375;SDS011;51976;47.332;9.404;2022-08-21T06:16:03;0.43;;;0.30;;
65375;SDS011;51976;47.332;9.404;2022-08-21T06:18:33;0.80;;;0.40;;
65375;SDS011;51976;47.332;9.404;2022-08-21T06:21:00;0.70;;;0.40;;
65375;SDS011;51976;47.332;9.404;2022-08-21T06:23:25;0.73;;;0.40;;
65375;SDS011;51976;47.332;9.404;2022-08-21T06:25:50;0.40;;;0.20;;
65375;SDS011;51976;47.332;9.404;2022-08-21T06:28:16;0.90;;;0.40;;
65375;SDS011;51976;47.332;9.404;2022-08-21T06:30:41;0.38;;;0.20;;
65375;SDS011;51976;47.332;9.404;2022-08-21T06:33:07;0.52;;;0.35;;
65375;SDS011;51976;47.332;9.404;2022-08-21T06:35:33;0.70;;;0.40;;
65375;SDS011;51976;47.332;9.404;2022-08-21T06:37:59;0.55;;;0.40;;
65375;SDS011;51976;47.332;9.404;2022-08-21T06:40:28;0.57;;;0.40;;
65375;SDS011;51976;47.332;9.404;2022-08-21T06:42:55;0.52;;;0.40;;
65375;SDS011;51976;47.332;9.404;2022-08-21T06:45:21;0.60;;;0.50;;
65375;SDS011;51976;47.332;9.404;2022-08-21T06:47:47;0.65;;;0.30;;
65375;SDS011;51976;47.332;9.404;2022-08-21T06:50:12;0.65;;;0.40;;
65375;SDS011;51976;47.332;9.404;2022-08-21T06:52:38;0.50;;;0.30;;
65375;SDS011;51976;47.332;9.404;2022-08-21T06:55:05;0.60;;;0.30;;
65375;SDS011;51976;47.332;9.404;2022-08-21T06:57:31;0.35;;;0.30;;
65375;SDS011;51976;47.332;9.404;2022-08-21T06:59:57;0.60;;;0.30;;
65375;SDS011;51976;47.332;9.404;2022-08-21T07:02:22;0.50;;;0.40;;
65375;SDS011;51976;47.332;9.404;2022-08-21T07:04:47;0.65;;;0.35;;
65375;SDS011;51976;47.332;9.404;2022-08-21T07:07:13;0.60;;;0.40;;
65375;SDS011;51976;47.332;9.404;2022-08-21T07:09:39;0.80;;;0.40;;
65375;SDS011;51976;47.332;9.404;2022-08-21T07:12:04;0.70;;;0.30;;
65375;SDS011;51976;47.332;9.404;2022-08-21T07:14:30;0.50;;;0.20;;
65375;SDS011;51976;47.332;9.404;2022-08-21T07:16:55;0.75;;;0.28;;
65375;SDS011;51976;47.332;9.404;2022-08-21T07:19:21;0.40;;;0.30;;
65375;SDS011;51976;47.332;9.404;2022-08-21T07:21:46;0.60;;;0.30;;
65375;SDS011;51976;47.332;9.404;2022-08-21T07:24:12;0.73;;;0.28;;
65375;SDS011;51976;47.332;9.404;2022-08-21T07:26:37;0.77;;;0.38;;
65375;SDS011;51976;47.332;9.404;2022-08-21T07:29:03;0.50;;;0.38;;
65375;SDS011;51976;47.332;9.404;2022-08-21T07:31:29;0.65;;;0.43;;
65375;SDS011;51976;47.332;9.404;2022-08-21T07:33:54;0.40;;;0.30;;
65375;SDS011;51976;47.332;9.404;2022-08-21T07:36:20;0.50;;;0.30;;
65375;SDS011;51976;47.332;9.404;2022-08-21T07:38:45;0.80;;;0.43;;
65375;SDS011;51976;47.332;9.404;2022-08-21T07:41:14;0.80;;;0.40;;
65375;SDS011;51976;47.332;9.404;2022-08-21T07:43:42;0.75;;;0.40;;
65375;SDS011;51976;47.332;9.404;2022-08-21T07:46:09;0.85;;;0.40;;
65375;SDS011;51976;47.332;9.404;2022-08-21T07:48:35;0.40;;;0.30;;
65375;SDS011;51976;47.332;9.404;2022-08-21T07:51:01;0.40;;;0.30;;
65375;SDS011;51976;47.332;9.404;2022-08-21T07:53:30;0.50;;;0.28;;
65375;SDS011;51976;47.332;9.404;2022-08-21T07:55:58;0.40;;;0.30;;
65375;SDS011;51976;47.332;9.404;2022-08-21T07:58:24;0.60;;;0.40;;
65375;SDS011;51976;47.332;9.404;2022-08-21T08:00:49;0.45;;;0.20;;
65375;SDS011;51976;47.332;9.404;2022-08-21T08:03:15;1.00;;;0.30;;
65375;SDS011;51976;47.332;9.404;2022-08-21T08:05:40;0.60;;;0.40;;
65375;SDS011;51976;47.332;9.404;2022-08-21T08:08:06;1.85;;;0.40;;
65375;SDS011;51976;47.332;9.404;2022-08-21T08:10:32;0.52;;;0.30;;
65375;SDS011;51976;47.332;9.404;2022-08-21T08:12:57;0.43;;;0.30;;
65375;SDS011;51976;47.332;9.404;2022-08-21T08:15:24;0.20;;;0.20;;
65375;SDS011;51976;47.332;9.404;2022-08-21T08:17:51;0.50;;;0.30;;
65375;SDS011;51976;47.332;9.404;2022-08-21T08:20:17;0.50;;;0.30;;
65375;SDS011;51976;47.332;9.404;2022-08-21T08:22:44;1.35;;;0.30;;
65375;SDS011;51976;47.332;9.404;2022-08-21T08:25:11;0.40;;;0.30;;
65375;SDS011;51976;47.332;9.404;2022-08-21T08:27:38;0.38;;;0.30;;
65375;SDS011;51976;47.332;9.404;2022-08-21T08:30:05;0.60;;;0.40;;
65375;SDS011;51976;47.332;9.404;2022-08-21T08:32:32;0.40;;;0.28;;
65375;SDS011;51976;47.332;9.404;2022-08-21T08:34:58;0.60;;;0.32;;
65375;SDS011;51976;47.332;9.404;2022-08-21T08:37:24;0.80;;;0.50;;
65375;SDS011;51976;47.332;9.404;2022-08-21T08:39:50;0.98;;;0.22;;
65375;SDS011;51976;47.332;9.404;2022-08-21T08:42:18;0.60;;;0.40;;
65375;SDS011;51976;47.332;9.404;2022-08-21T08:44:51;0.63;;;0.20;;
65375;SDS011;51976;47.332;9.404;2022-08-21T08:47:23;0.50;;;0.30;;
65375;SDS011;51976;47.332;9.404;2022-08-21T08:49:55;0.60;;;0.30;;
65375;SDS011;51976;47.332;9.404;2022-08-21T08:52:28;0.50;;;0.32;;
65375;SDS011;51976;47.332;9.404;2022-08-21T08:55:04;0.90;;;0.50;;
65375;SDS011;51976;47.332;9.404;2022-08-21T08:57:33;3.63;;;0.70;;
65375;SDS011;51976;47.332;9.404;2022-08-21T09:00:03;0.73;;;0.40;;
65375;SDS011;51976;47.332;9.404;2022-08-21T09:02:31;0.50;;;0.38;;
65375;SDS011;51976;47.332;9.404;2022-08-21T09:04:58;0.60;;;0.40;;
65375;SDS011;51976;47.332;9.404;2022-08-21T09:07:53;0.43;;;0.30;;
65375;SDS011;51976;47.332;9.404;2022-08-21T09:10:20;0.80;;;0.50;;
65375;SDS011;51976;47.332;9.404;2022-08-21T09:13:05;0.47;;;0.30;;
65375;SDS011;51976;47.332;9.404;2022-08-21T09:15:54;0.73;;;0.35;;
65375;SDS011;51976;47.332;9.404;2022-08-21T09:18:55;0.70;;;0.38;;
65375;SDS011;51976;47.332;9.404;2022-08-21T09:21:49;0.52;;;0.30;;
65375;SDS011;51976;47.332;9.404;2022-08-21T09:24:28;0.40;;;0.25;;
65375;SDS011;51976;47.332;9.404;2022-08-21T09:27:09;0.57;;;0.30;;
65375;SDS011;51976;47.332;9.404;2022-08-21T09:29:39;0.45;;;0.30;;
65375;SDS011;51976;47.332;9.404;2022-08-21T09:32:15;0.65;;;0.40;;
65375;SDS011;51976;47.332;9.404;2022-08-21T09:35:12;0.60;;;0.32;;
65375;SDS011;51976;47.332;9.404;2022-08-21T09:40:32;0.40;;;0.30;;
65375;SDS011;51976;47.332;9.404;2022-08-21T09:43:17;0.50;;;0.30;;
65375;SDS011;51976;47.332;9.404;2022-08-21T09:45:44;0.50;;;0.30;;
65375;SDS011;51976;47.332;9.404;2022-08-21T09:48:12;0.63;;;0.35;;
65375;SDS011;51976;47.332;9.404;2022-08-21T09:50:46;0.55;;;0.28;;
65375;SDS011;51976;47.332;9.404;2022-08-21T09:53:17;0.65;;;0.30;;
65375;SDS011;51976;47.332;9.404;2022-08-21T09:55:50;0.43;;;0.30;;
65375;SDS011;51976;47.332;9.404;2022-08-21T09:58:44;0.57;;;0.35;;
65375;SDS011;51976;47.332;9.404;2022-08-21T10:01:15;0.38;;;0.20;;
65375;SDS011;51976;47.332;9.404;2022-08-21T10:03:45;0.40;;;0.30;;
65375;SDS011;51976;47.332;9.404;2022-08-21T10:06:19;0.70;;;0.40;;
65375;SDS011;51976;47.332;9.404;2022-08-21T10:08:49;0.35;;;0.20;;
65375;SDS011;51976;47.332;9.404;2022-08-21T10:11:15;0.20;;;0.20;;
65375;SDS011;51976;47.332;9.404;2022-08-21T10:13:59;0.60;;;0.40;;
65375;SDS011;51976;47.332;9.404;2022-08-21T10:16:50;0.40;;;0.38;;
65375;SDS011;51976;47.332;9.404;2022-08-21T10:19:38;0.50;;;0.30;;
65375;SDS011;51976;47.332;9.404;2022-08-21T10:22:31;0.40;;;0.30;;
65375;SDS011;51976;47.332;9.404;2022-08-21T10:25:08;0.40;;;0.30;;
65375;SDS011;51976;47.332;9.404;2022-08-21T10:27:58;0.45;;;0.30;;
65375;SDS011;51976;47.332;9.404;2022-08-21T10:30:38;0.40;;;0.30;;
65375;SDS011;51976;47.332;9.404;2022-08-21T10:33:26;0.73;;;0.30;;
65375;SDS011;51976;47.332;9.404;2022-08-21T10:36:09;0.50;;;0.20;;
65375;SDS011;51976;47.332;9.404;2022-08-21T10:41:56;0.38;;;0.28;;
65375;SDS011;51976;47.332;9.404;2022-08-21T10:44:49;0.30;;;0.20;;
65375;SDS011;51976;47.332;9.404;2022-08-21T10:47:34;0.45;;;0.30;;
65375;SDS011;51976;47.332;9.404;2022-08-21T10:50:17;0.55;;;0.30;;
65375;SDS011;51976;47.332;9.404;2022-08-21T10:55:57;0.55;;;0.40;;
65375;SDS011;51976;47.332;9.404;2022-08-21T10:58:31;0.88;;;0.40;;
65375;SDS011;51976;47.332;9.404;2022-08-21T11:01:09;0.52;;;0.20;;
65375;SDS011;51976;47.332;9.404;2022-08-21T11:03:42;0.55;;;0.30;;
65375;SDS011;51976;47.332;9.404;2022-08-21T11:06:14;0.43;;;0.30;;
65375;SDS011;51976;47.332;9.404;2022-08-21T11:08:45;0.60;;;0.50;;
65375;SDS011;51976;47.332;9.404;2022-08-21T11:11:18;0.50;;;0.30;;
65375;SDS011;51976;47.332;9.404;2022-08-21T11:13:53;0.75;;;0.40;;
65375;SDS011;51976;47.332;9.404;2022-08-21T11:16:25;0.60;;;0.30;;
65375;SDS011;51976;47.332;9.404;2022-08-21T11:19:07;0.63;;;0.40;;
65375;SDS011;51976;47.332;9.404;2022-08-21T11:21:42;0.77;;;0.40;;
65375;SDS011;51976;47.332;9.404;2022-08-21T11:24:21;0.60;;;0.40;;
65375;SDS011;51976;47.332;9.404;2022-08-21T11:27:03;0.32;;;0.30;;
65375;SDS011;51976;47.332;9.404;2022-08-21T11:29:36;0.50;;;0.30;;
65375;SDS011;51976;47.332;9.404;2022-08-21T11:32:46;0.70;;;0.40;;
65375;SDS011;51976;47.332;9.404;2022-08-21T11:35:14;0.52;;;0.30;;
65375;SDS011;51976;47.332;9.404;2022-08-21T11:38:15;0.70;;;0.30;;
65375;SDS011;51976;47.332;9.404;2022-08-21T11:41:11;0.50;;;0.30;;
65375;SDS011;51976;47.332;9.404;2022-08-21T11:44:02;0.70;;;0.38;;
65375;SDS011;51976;47.332;9.404;2022-08-21T11:47:00;0.80;;;0.40;;
65375;SDS011;51976;47.332;9.404;2022-08-21T11:49:43;0.30;;;0.20;;
65375;SDS011;51976;47.332;9.404;2022-08-21T11:52:26;0.60;;;0.30;;
65375;SDS011;51976;47.332;9.404;2022-08-21T11:55:01;0.45;;;0.28;;
65375;SDS011;51976;47.332;9.404;2022-08-21T11:57:35;0.50;;;0.30;;
65375;SDS011;51976;47.332;9.404;2022-08-21T12:00:27;0.50;;;0.30;;
65375;SDS011;51976;47.332;9.404;2022-08-21T12:03:06;0.30;;;0.25;;
65375;SDS011;51976;47.332;9.404;2022-08-21T12:05:37;0.57;;;0.40;;
65375;SDS011;51976;47.332;9.404;2022-08-21T12:08:09;0.30;;;0.20;;
65375;SDS011;51976;47.332;9.404;2022-08-21T12:10:45;0.30;;;0.20;;
65375;SDS011;51976;47.332;9.404;2022-08-21T12:13:23;0.87;;;0.40;;
65375;SDS011;51976;47.332;9.404;2022-08-21T12:16:04;0.73;;;0.40;;
65375;SDS011;51976;47.332;9.404;2022-08-21T12:18:30;0.40;;;0.30;;
65375;SDS011;51976;47.332;9.404;2022-08-21T12:20:59;0.30;;;0.30;;
65375;SDS011;51976;47.332;9.404;2022-08-21T12:23:31;0.30;;;0.20;;
65375;SDS011;51976;47.332;9.404;2022-08-21T12:26:13;0.60;;;0.38;;
65375;SDS011;51976;47.332;9.404;2022-08-21T12:28:51;0.70;;;0.30;;
65375;SDS011;51976;47.332;9.404;2022-08-21T12:31:27;0.50;;;0.30;;
65375;SDS011;51976;47.332;9.404;2022-08-21T12:33:57;0.47;;;0.20;;
65375;SDS011;51976;47.332;9.404;2022-08-21T12:36:40;0.57;;;0.30;;
65375;SDS011;51976;47.332;9.404;2022-08-21T12:39:13;0.40;;;0.20;;
65375;SDS011;51976;47.332;9.404;2022-08-21T12:41:49;0.45;;;0.30;;
65375;SDS011;51976;47.332;9.404;2022-08-21T12:44:28;0.55;;;0.40;;
65375;SDS011;51976;47.332;9.404;2022-08-21T12:47:04;0.50;;;0.30;;
65375;SDS011;51976;47.332;9.404;2022-08-21T12:49:43;0.40;;;0.25;;
65375;SDS011;51976;47.332;9.404;2022-08-21T12:52:25;0.50;;;0.25;;
65375;SDS011;51976;47.332;9.404;2022-08-21T12:54:58;0.85;;;0.40;;
65375;SDS011;51976;47.332;9.404;2022-08-21T12:57:25;0.50;;;0.30;;
65375;SDS011;51976;47.332;9.404;2022-08-21T12:59:53;0.50;;;0.30;;
65375;SDS011;51976;47.332;9.404;2022-08-21T13:02:22;0.20;;;0.20;;
65375;SDS011;51976;47.332;9.404;2022-08-21T13:04:51;0.40;;;0.30;;
65375;SDS011;51976;47.332;9.404;2022-08-21T13:07:24;0.40;;;0.25;;
65375;SDS011;51976;47.332;9.404;2022-08-21T13:09:53;0.43;;;0.20;;
65375;SDS011;51976;47.332;9.404;2022-08-21T13:12:23;0.50;;;0.28;;
65375;SDS011;51976;47.332;9.404;2022-08-21T13:14:50;0.85;;;0.40;;
65375;SDS011;51976;47.332;9.404;2022-08-21T13:17:17;1.23;;;0.50;;
65375;SDS011;51976;47.332;9.404;2022-08-21T13:19:56;0.43;;;0.20;;
65375;SDS011;51976;47.332;9.404;2022-08-21T13:22:25;0.50;;;0.32;;
65375;SDS011;51976;47.332;9.404;2022-08-21T13:24:52;0.52;;;0.30;;
65375;SDS011;51976;47.332;9.404;2022-08-21T13:27:24;0.38;;;0.30;;
65375;SDS011;51976;47.332;9.404;2022-08-21T13:32:46;0.47;;;0.28;;
65375;SDS011;51976;47.332;9.404;2022-08-21T13:35:22;0.60;;;0.30;;
65375;SDS011;51976;47.332;9.404;2022-08-21T13:37:51;0.20;;;0.20;;
65375;SDS011;51976;47.332;9.404;2022-08-21T13:40:20;0.70;;;0.35;;
65375;SDS011;51976;47.332;9.404;2022-08-21T13:42:50;0.60;;;0.20;;
65375;SDS011;51976;47.332;9.404;2022-08-21T13:45:21;0.50;;;0.38;;
65375;SDS011;51976;47.332;9.404;2022-08-21T13:47:50;0.30;;;0.20;;
65375;SDS011;51976;47.332;9.404;2022-08-21T13:50:18;0.35;;;0.22;;
65375;SDS011;51976;47.332;9.404;2022-08-21T13:52:49;0.35;;;0.20;;
65375;SDS011;51976;47.332;9.404;2022-08-21T13:55:23;0.40;;;0.28;;
65375;SDS011;51976;47.332;9.404;2022-08-21T13:57:59;0.45;;;0.30;;
65375;SDS011;51976;47.332;9.404;2022-08-21T14:00:27;0.43;;;0.30;;
65375;SDS011;51976;47.332;9.404;2022-08-21T14:02:59;0.45;;;0.30;;
65375;SDS011;51976;47.332;9.404;2022-08-21T14:05:30;0.52;;;0.30;;
65375;SDS011;51976;47.332;9.404;2022-08-21T14:08:01;0.52;;;0.30;;
65375;SDS011;51976;47.332;9.404;2022-08-21T14:10:35;0.32;;;0.20;;
65375;SDS011;51976;47.332;9.404;2022-08-21T14:13:06;0.30;;;0.20;;
65375;SDS011;51976;47.332;9.404;2022-08-21T14:15:33;0.43;;;0.30;;
65375;SDS011;51976;47.332;9.404;2022-08-21T14:18:09;0.55;;;0.20;;
65375;SDS011;51976;47.332;9.404;2022-08-21T14:20:40;0.38;;;0.20;;
65375;SDS011;51976;47.332;9.404;2022-08-21T14:23:06;0.70;;;0.35;;
65375;SDS011;51976;47.332;9.404;2022-08-21T14:25:41;0.57;;;0.40;;
65375;SDS011;51976;47.332;9.404;2022-08-21T14:28:26;0.55;;;0.30;;
65375;SDS011;51976;47.332;9.404;2022-08-21T14:30:56;0.45;;;0.22;;
65375;SDS011;51976;47.332;9.404;2022-08-21T14:33:29;0.60;;;0.30;;
65375;SDS011;51976;47.332;9.404;2022-08-21T14:35:58;0.60;;;0.30;;
65375;SDS011;51976;47.332;9.404;2022-08-21T14:38:24;0.50;;;0.25;;
65375;SDS011;51976;47.332;9.404;2022-08-21T14:40:54;0.50;;;0.20;;
65375;SDS011;51976;47.332;9.404;2022-08-21T14:43:22;0.40;;;0.20;;
65375;SDS011;51976;47.332;9.404;2022-08-21T14:45:50;0.30;;;0.17;;
65375;SDS011;51976;47.332;9.404;2022-08-21T14:48:15;0.40;;;0.30;;
65375;SDS011;51976;47.332;9.404;2022-08-21T14:50:41;0.47;;;0.30;;
65375;SDS011;51976;47.332;9.404;2022-08-21T14:53:07;0.32;;;0.20;;
65375;SDS011;51976;47.332;9.404;2022-08-21T14:55:32;0.28;;;0.17;;
65375;SDS011;51976;47.332;9.404;2022-08-21T15:00:43;0.35;;;0.20;;
65375;SDS011;51976;47.332;9.404;2022-08-21T15:03:08;0.22;;;0.22;;
65375;SDS011;51976;47.332;9.404;2022-08-21T15:05:34;0.35;;;0.25;;
65375;SDS011;51976;47.332;9.404;2022-08-21T15:07:59;0.30;;;0.20;;
65375;SDS011;51976;47.332;9.404;2022-08-21T15:10:25;1.05;;;0.20;;
65375;SDS011;51976;47.332;9.404;2022-08-21T15:12:50;0.38;;;0.30;;
65375;SDS011;51976;47.332;9.404;2022-08-21T15:15:16;0.20;;;0.20;;
65375;SDS011;51976;47.332;9.404;2022-08-21T15:17:41;0.38;;;0.30;;
65375;SDS011;51976;47.332;9.404;2022-08-21T15:20:07;0.50;;;0.30;;